sensor_id;sensor_type;location;lat;lon;timestamp;pressure;altitude;pressure_sealevel;temperature;humidity
53916;BME280;39827;49.652;18.770;2022-10-16T00:01:38;96727.06;;;12.80;89.50
53916;BME280;39827;49.652;18.770;2022-10-16T00:04:04;96726.28;;;12.79;89.76
53916;BME280;39827;49.652;18.770;2022-10-16T00:06:30;96737.97;;;12.68;89.82
53916;BME280;39827;49.652;18.770;2022-10-16T00:08:56;96734.25;;;12.79;89.91
53916;BME280;39827;49.652;18.770;2022-10-16T00:11:33;96749.91;;;12.70;90.64
53916;BME280;39827;49.652;18.770;2022-10-16T00:14:03;96765.34;;;12.73;90.08
53916;BME280;39827;49.652;18.770;2022-10-16T00:16:28;96734.53;;;12.72;90.22
53916;BME280;39827;49.652;18.770;2022-10-16T00:18:54;96743.78;;;12.64;90.54
53916;BME280;39827;49.652;18.770;2022-10-16T00:21:22;96745.41;;;12.81;90.20
53916;BME280;39827;49.652;18.770;2022-10-16T00:24:02;96743.03;;;12.90;89.66
53916;BME280;39827;49.652;18.770;2022-10-16T00:26:29;96744.88;;;12.84;89.29
53916;BME280;39827;49.652;18.770;2022-10-16T00:28:55;96729.72;;;12.74;90.00
53916;BME280;39827;49.652;18.770;2022-10-16T00:31:21;96750.47;;;12.83;89.94
53916;BME280;39827;49.652;18.770;2022-10-16T00:33:47;96747.78;;;12.93;89.67
53916;BME280;39827;49.652;18.770;2022-10-16T00:36:15;96760.28;;;12.82;90.30
53916;BME280;39827;49.652;18.770;2022-10-16T00:38:41;96745.41;;;12.76;90.47
53916;BME280;39827;49.652;18.770;2022-10-16T00:41:09;96766.41;;;12.93;89.89
53916;BME280;39827;49.652;18.770;2022-10-16T00:48:40;96768.28;;;12.93;89.22
53916;BME280;39827;49.652;18.770;2022-10-16T00:51:07;96759.50;;;12.87;89.73
53916;BME280;39827;49.652;18.770;2022-10-16T00:53:33;96756.03;;;12.92;89.27
53916;BME280;39827;49.652;18.770;2022-10-16T00:55:59;96752.03;;;12.89;89.05
53916;BME280;39827;49.652;18.770;2022-10-16T00:58:25;96737.97;;;12.99;88.78
53916;BME280;39827;49.652;18.770;2022-10-16T01:00:50;96740.38;;;13.00;88.85
53916;BME280;39827;49.652;18.770;2022-10-16T01:03:25;96729.22;;;13.03;88.34
53916;BME280;39827;49.652;18.770;2022-10-16T01:08:41;96738.25;;;13.08;88.77
53916;BME280;39827;49.652;18.770;2022-10-16T01:11:22;96744.63;;;13.12;88.44
53916;BME280;39827;49.652;18.770;2022-10-16T01:13:53;96756.31;;;13.06;88.48
53916;BME280;39827;49.652;18.770;2022-10-16T01:19:02;96737.16;;;13.09;88.69
53916;BME280;39827;49.652;18.770;2022-10-16T01:21:38;96753.91;;;13.09;88.57
53916;BME280;39827;49.652;18.770;2022-10-16T01:24:27;96749.13;;;13.11;88.51
53916;BME280;39827;49.652;18.770;2022-10-16T01:29:52;96739.56;;;13.15;88.04
53916;BME280;39827;49.652;18.770;2022-10-16T01:35:04;96765.34;;;13.10;88.05
53916;BME280;39827;49.652;18.770;2022-10-16T01:37:41;96750.97;;;13.06;88.68
53916;BME280;39827;49.652;18.770;2022-10-16T01:40:12;96746.72;;;13.15;88.26
53916;BME280;39827;49.652;18.770;2022-10-16T01:42:44;96743.28;;;13.14;88.70
53916;BME280;39827;49.652;18.770;2022-10-16T01:45:13;96740.63;;;12.99;88.83
53916;BME280;39827;49.652;18.770;2022-10-16T01:47:40;96733.47;;;12.94;89.62
53916;BME280;39827;49.652;18.770;2022-10-16T01:50:08;96739.56;;;12.95;89.65
53916;BME280;39827;49.652;18.770;2022-10-16T01:52:39;96746.47;;;12.85;89.92
53916;BME280;39827;49.652;18.770;2022-10-16T01:55:08;96753.09;;;12.93;89.83
53916;BME280;39827;49.652;18.770;2022-10-16T01:57:37;96759.75;;;12.90;90.21
53916;BME280;39827;49.652;18.770;2022-10-16T02:00:10;96749.66;;;12.87;90.12
53916;BME280;39827;49.652;18.770;2022-10-16T02:02:41;96749.66;;;12.82;90.66
53916;BME280;39827;49.652;18.770;2022-10-16T02:05:25;96752.31;;;12.82;91.06
53916;BME280;39827;49.652;18.770;2022-10-16T02:07:52;96748.06;;;12.81;91.13
53916;BME280;39827;49.652;18.770;2022-10-16T02:10:18;96761.91;;;12.83;91.13
53916;BME280;39827;49.652;18.770;2022-10-16T02:13:01;96775.44;;;12.92;90.92
53916;BME280;39827;49.652;18.770;2022-10-16T02:15:27;96774.91;;;13.00;90.75
53916;BME280;39827;49.652;18.770;2022-10-16T02:17:52;96763.22;;;12.96;90.27
53916;BME280;39827;49.652;18.770;2022-10-16T02:20:22;96779.16;;;12.96;90.47
53916;BME280;39827;49.652;18.770;2022-10-16T02:22:50;96790.59;;;12.97;90.60
53916;BME280;39827;49.652;18.770;2022-10-16T02:25:27;96784.75;;;12.89;91.20
53916;BME280;39827;49.652;18.770;2022-10-16T02:28:01;96792.19;;;12.98;90.51
53916;BME280;39827;49.652;18.770;2022-10-16T02:30:47;96780.75;;;12.92;90.18
53916;BME280;39827;49.652;18.770;2022-10-16T02:33:14;96781.03;;;12.85;91.52
53916;BME280;39827;49.652;18.770;2022-10-16T02:35:41;96787.66;;;12.72;91.97
53916;BME280;39827;49.652;18.770;2022-10-16T02:38:08;96785.53;;;12.74;91.66
53916;BME280;39827;49.652;18.770;2022-10-16T02:40:35;96792.16;;;12.72;92.12
53916;BME280;39827;49.652;18.770;2022-10-16T02:43:03;96783.94;;;12.68;92.00
53916;BME280;39827;49.652;18.770;2022-10-16T02:45:28;96798.81;;;12.80;91.63
53916;BME280;39827;49.652;18.770;2022-10-16T02:47:54;96790.31;;;12.77;91.37
53916;BME280;39827;49.652;18.770;2022-10-16T02:50:19;96796.16;;;12.74;91.50
53916;BME280;39827;49.652;18.770;2022-10-16T02:52:45;96793.50;;;12.74;91.40
53916;BME280;39827;49.652;18.770;2022-10-16T02:55:10;96781.53;;;12.77;91.59
53916;BME280;39827;49.652;18.770;2022-10-16T02:57:35;96778.38;;;12.80;91.31
53916;BME280;39827;49.652;18.770;2022-10-16T03:00:04;96787.66;;;12.77;91.44
53916;BME280;39827;49.652;18.770;2022-10-16T03:02:29;96775.66;;;12.59;92.41
53916;BME280;39827;49.652;18.770;2022-10-16T03:04:54;96791.09;;;12.73;91.35
53916;BME280;39827;49.652;18.770;2022-10-16T03:07:20;96779.91;;;12.66;91.61
53916;BME280;39827;49.652;18.770;2022-10-16T03:09:45;96794.00;;;12.66;91.92
53916;BME280;39827;49.652;18.770;2022-10-16T03:12:11;96797.69;;;12.55;92.64
53916;BME280;39827;49.652;18.770;2022-10-16T03:14:37;96787.59;;;12.46;93.25
53916;BME280;39827;49.652;18.770;2022-10-16T03:17:02;96792.94;;;12.57;93.25
53916;BME280;39827;49.652;18.770;2022-10-16T03:19:28;96784.41;;;12.39;93.86
53916;BME280;39827;49.652;18.770;2022-10-16T03:21:53;96797.94;;;12.48;93.79
53916;BME280;39827;49.652;18.770;2022-10-16T03:24:18;96799.81;;;12.47;93.73
53916;BME280;39827;49.652;18.770;2022-10-16T03:26:44;96791.25;;;12.24;94.76
53916;BME280;39827;49.652;18.770;2022-10-16T03:29:09;96801.84;;;12.19;94.98
53916;BME280;39827;49.652;18.770;2022-10-16T03:31:34;96820.19;;;12.26;95.69
53916;BME280;39827;49.652;18.770;2022-10-16T03:34:00;96795.19;;;12.17;95.39
53916;BME280;39827;49.652;18.770;2022-10-16T03:36:25;96811.72;;;12.29;94.47
53916;BME280;39827;49.652;18.770;2022-10-16T03:38:50;96808.03;;;12.35;93.95
53916;BME280;39827;49.652;18.770;2022-10-16T03:41:16;96819.19;;;12.48;93.20
53916;BME280;39827;49.652;18.770;2022-10-16T03:43:41;96821.84;;;12.43;93.05
53916;BME280;39827;49.652;18.770;2022-10-16T03:46:07;96804.06;;;12.38;93.32
53916;BME280;39827;49.652;18.770;2022-10-16T03:48:32;96821.56;;;12.34;93.91
53916;BME280;39827;49.652;18.770;2022-10-16T03:50:58;96811.72;;;12.34;93.82
53916;BME280;39827;49.652;18.770;2022-10-16T03:53:23;96815.41;;;12.23;94.81
53916;BME280;39827;49.652;18.770;2022-10-16T03:55:49;96822.59;;;12.33;93.81
53916;BME280;39827;49.652;18.770;2022-10-16T03:58:14;96832.22;;;12.49;92.75
53916;BME280;39827;49.652;18.770;2022-10-16T04:00:43;96834.88;;;12.49;92.85
53916;BME280;39827;49.652;18.770;2022-10-16T04:03:10;96837.25;;;12.41;93.12
53916;BME280;39827;49.652;18.770;2022-10-16T04:05:36;96832.47;;;12.48;92.89
53916;BME280;39827;49.652;18.770;2022-10-16T04:08:02;96828.22;;;12.47;92.75
53916;BME280;39827;49.652;18.770;2022-10-16T04:10:27;96832.22;;;12.55;91.65
53916;BME280;39827;49.652;18.770;2022-10-16T04:12:53;96810.97;;;12.55;91.30
53916;BME280;39827;49.652;18.770;2022-10-16T04:15:23;96813.63;;;12.49;91.58
53916;BME280;39827;49.652;18.770;2022-10-16T04:17:49;96833.03;;;12.55;91.51
53916;BME280;39827;49.652;18.770;2022-10-16T04:20:14;96832.25;;;12.60;91.10
53916;BME280;39827;49.652;18.770;2022-10-16T04:22:40;96821.34;;;12.56;91.07
53916;BME280;39827;49.652;18.770;2022-10-16T04:25:05;96833.03;;;12.50;91.12
53916;BME280;39827;49.652;18.770;2022-10-16T04:27:31;96830.38;;;12.50;91.35
53916;BME280;39827;49.652;18.770;2022-10-16T04:30:00;96847.66;;;12.58;90.97
53916;BME280;39827;49.652;18.770;2022-10-16T04:32:26;96849.53;;;12.62;91.04
53916;BME280;39827;49.652;18.770;2022-10-16T04:34:51;96848.13;;;12.44;92.18
53916;BME280;39827;49.652;18.770;2022-10-16T04:37:17;96859.56;;;12.45;92.35
53916;BME280;39827;49.652;18.770;2022-10-16T04:39:42;96849.44;;;12.31;93.18
53916;BME280;39827;49.652;18.770;2022-10-16T04:42:07;96864.59;;;12.41;92.29
53916;BME280;39827;49.652;18.770;2022-10-16T04:44:33;96866.22;;;12.47;91.52
53916;BME280;39827;49.652;18.770;2022-10-16T04:46:58;96844.97;;;12.42;91.93
53916;BME280;39827;49.652;18.770;2022-10-16T04:49:23;96852.97;;;12.58;91.13
53916;BME280;39827;49.652;18.770;2022-10-16T04:51:49;96856.16;;;12.60;90.79
53916;BME280;39827;49.652;18.770;2022-10-16T04:54:14;96843.34;;;12.41;92.25
53916;BME280;39827;49.652;18.770;2022-10-16T04:56:39;96836.94;;;12.32;93.00
53916;BME280;39827;49.652;18.770;2022-10-16T04:59:12;96839.53;;;12.16;94.21
53916;BME280;39827;49.652;18.770;2022-10-16T05:01:37;96858.59;;;12.08;94.95
53916;BME280;39827;49.652;18.770;2022-10-16T05:04:03;96865.56;;;12.19;93.99
53916;BME280;39827;49.652;18.770;2022-10-16T05:06:29;96861.09;;;12.30;93.44
53916;BME280;39827;49.652;18.770;2022-10-16T05:08:54;96873.50;;;12.19;93.52
53916;BME280;39827;49.652;18.770;2022-10-16T05:11:20;96860.31;;;12.35;92.58
53916;BME280;39827;49.652;18.770;2022-10-16T05:13:45;96870.69;;;12.36;91.93
53916;BME280;39827;49.652;18.770;2022-10-16T05:16:10;96852.13;;;12.42;92.41
53916;BME280;39827;49.652;18.770;2022-10-16T05:18:36;96850.22;;;12.32;91.92
53916;BME280;39827;49.652;18.770;2022-10-16T05:21:01;96859.00;;;12.37;92.53
53916;BME280;39827;49.652;18.770;2022-10-16T05:23:26;96856.31;;;12.32;92.83
53916;BME280;39827;49.652;18.770;2022-10-16T05:25:53;96861.91;;;12.31;92.92
53916;BME280;39827;49.652;18.770;2022-10-16T05:28:19;96870.44;;;12.38;92.00
53916;BME280;39827;49.652;18.770;2022-10-16T05:30:45;96881.06;;;12.43;91.66
53916;BME280;39827;49.652;18.770;2022-10-16T05:33:10;96868.31;;;12.40;91.94
53916;BME280;39827;49.652;18.770;2022-10-16T05:35:35;96878.97;;;12.50;90.92
53916;BME280;39827;49.652;18.770;2022-10-16T05:38:00;96872.06;;;12.49;91.88
53916;BME280;39827;49.652;18.770;2022-10-16T05:40:26;96872.84;;;12.40;92.10
53916;BME280;39827;49.652;18.770;2022-10-16T05:42:54;96870.44;;;12.38;92.73
53916;BME280;39827;49.652;18.770;2022-10-16T05:45:20;96871.47;;;12.37;92.22
53916;BME280;39827;49.652;18.770;2022-10-16T05:47:45;96882.31;;;12.30;93.32
53916;BME280;39827;49.652;18.770;2022-10-16T05:50:11;96876.00;;;12.36;92.60
53916;BME280;39827;49.652;18.770;2022-10-16T05:52:36;96870.66;;;12.31;93.04
53916;BME280;39827;49.652;18.770;2022-10-16T05:55:02;96877.84;;;12.36;93.13
53916;BME280;39827;49.652;18.770;2022-10-16T05:57:27;96874.34;;;12.25;93.54
53916;BME280;39827;49.652;18.770;2022-10-16T05:59:52;96877.34;;;12.39;92.93
53916;BME280;39827;49.652;18.770;2022-10-16T06:02:18;96879.19;;;12.38;93.18
53916;BME280;39827;49.652;18.770;2022-10-16T06:04:43;96883.44;;;12.40;92.58
53916;BME280;39827;49.652;18.770;2022-10-16T06:07:09;96882.13;;;12.42;92.55
53916;BME280;39827;49.652;18.770;2022-10-16T06:09:34;96876.84;;;12.47;92.30
53916;BME280;39827;49.652;18.770;2022-10-16T06:11:59;96877.91;;;12.46;91.63
53916;BME280;39827;49.652;18.770;2022-10-16T06:14:25;96896.97;;;12.38;93.36
53916;BME280;39827;49.652;18.770;2022-10-16T06:16:50;96907.38;;;12.45;92.60
53916;BME280;39827;49.652;18.770;2022-10-16T06:19:16;96917.84;;;12.77;90.18
53916;BME280;39827;49.652;18.770;2022-10-16T06:21:42;96912.28;;;12.79;89.69
53916;BME280;39827;49.652;18.770;2022-10-16T06:24:08;96926.94;;;12.97;88.72
53916;BME280;39827;49.652;18.770;2022-10-16T06:26:33;96923.75;;;12.90;88.98
53916;BME280;39827;49.652;18.770;2022-10-16T06:28:59;96931.22;;;13.09;88.53
53916;BME280;39827;49.652;18.770;2022-10-16T06:31:24;96928.56;;;13.14;87.49
53916;BME280;39827;49.652;18.770;2022-10-16T06:33:55;96925.91;;;13.24;86.96
53916;BME280;39827;49.652;18.770;2022-10-16T06:36:22;96937.16;;;13.52;86.18
53916;BME280;39827;49.652;18.770;2022-10-16T06:38:47;96932.66;;;13.63;84.28
53916;BME280;39827;49.652;18.770;2022-10-16T06:41:16;96935.31;;;13.84;83.11
53916;BME280;39827;49.652;18.770;2022-10-16T06:43:42;96924.91;;;14.09;81.88
53916;BME280;39827;49.652;18.770;2022-10-16T06:46:09;96935.66;;;14.80;77.69
53916;BME280;39827;49.652;18.770;2022-10-16T06:48:36;96922.13;;;15.86;71.75
53916;BME280;39827;49.652;18.770;2022-10-16T06:51:13;96925.84;;;17.12;66.99
53916;BME280;39827;49.652;18.770;2022-10-16T06:53:41;96939.44;;;16.48;68.79
53916;BME280;39827;49.652;18.770;2022-10-16T06:56:15;96930.53;;;15.69;72.78
53916;BME280;39827;49.652;18.770;2022-10-16T06:58:41;96923.97;;;16.45;68.99
53916;BME280;39827;49.652;18.770;2022-10-16T07:01:07;96945.72;;;17.25;65.66
53916;BME280;39827;49.652;18.770;2022-10-16T07:03:33;96952.59;;;16.14;68.65
53916;BME280;39827;49.652;18.770;2022-10-16T07:06:05;96938.03;;;15.67;71.89
53916;BME280;39827;49.652;18.770;2022-10-16T07:08:41;96949.34;;;15.53;71.82
53916;BME280;39827;49.652;18.770;2022-10-16T07:11:13;96954.50;;;15.39;72.05
53916;BME280;39827;49.652;18.770;2022-10-16T07:13:40;96951.78;;;15.44;71.86
53916;BME280;39827;49.652;18.770;2022-10-16T07:16:14;96947.44;;;15.19;72.62
53916;BME280;39827;49.652;18.770;2022-10-16T07:18:41;96962.84;;;15.27;72.99
53916;BME280;39827;49.652;18.770;2022-10-16T07:21:28;96951.06;;;15.39;72.40
53916;BME280;39827;49.652;18.770;2022-10-16T07:23:58;96965.72;;;15.41;72.79
53916;BME280;39827;49.652;18.770;2022-10-16T07:26:25;96948.94;;;15.35;72.45
53916;BME280;39827;49.652;18.770;2022-10-16T07:28:51;96960.91;;;15.38;72.21
53916;BME280;39827;49.652;18.770;2022-10-16T07:31:19;96964.13;;;15.35;72.12
53916;BME280;39827;49.652;18.770;2022-10-16T07:33:45;96968.22;;;15.62;71.25
53916;BME280;39827;49.652;18.770;2022-10-16T07:36:14;96959.47;;;15.56;71.77
53916;BME280;39827;49.652;18.770;2022-10-16T07:38:39;96968.22;;;15.62;70.26
53916;BME280;39827;49.652;18.770;2022-10-16T07:41:07;96978.53;;;15.79;69.40
53916;BME280;39827;49.652;18.770;2022-10-16T07:43:33;96967.59;;;15.75;69.44
53916;BME280;39827;49.652;18.770;2022-10-16T07:45:59;96981.41;;;15.83;69.99
53916;BME280;39827;49.652;18.770;2022-10-16T07:48:30;96992.69;;;15.74;69.78
53916;BME280;39827;49.652;18.770;2022-10-16T07:50:57;96989.56;;;15.67;69.91
53916;BME280;39827;49.652;18.770;2022-10-16T07:53:23;96990.19;;;15.48;70.35
53916;BME280;39827;49.652;18.770;2022-10-16T07:55:49;96992.09;;;15.48;70.26
53916;BME280;39827;49.652;18.770;2022-10-16T07:58:14;96986.81;;;15.32;71.58
53916;BME280;39827;49.652;18.770;2022-10-16T08:00:39;96999.47;;;15.16;71.46
53916;BME280;39827;49.652;18.770;2022-10-16T08:03:05;97003.91;;;15.31;72.37
53916;BME280;39827;49.652;18.770;2022-10-16T08:05:32;97015.66;;;15.30;72.55
53916;BME280;39827;49.652;18.770;2022-10-16T08:07:58;97012.56;;;15.13;72.59
53916;BME280;39827;49.652;18.770;2022-10-16T08:10:25;97009.81;;;15.23;72.43
53916;BME280;39827;49.652;18.770;2022-10-16T08:12:51;97003.69;;;15.22;73.49
53916;BME280;39827;49.652;18.770;2022-10-16T08:15:17;97008.72;;;15.34;71.90
53916;BME280;39827;49.652;18.770;2022-10-16T08:17:43;97007.28;;;15.47;70.70
53916;BME280;39827;49.652;18.770;2022-10-16T08:20:09;97006.09;;;15.69;71.07
53916;BME280;39827;49.652;18.770;2022-10-16T08:22:35;97015.56;;;16.26;67.74
53916;BME280;39827;49.652;18.770;2022-10-16T08:25:00;97006.03;;;16.93;64.73
53916;BME280;39827;49.652;18.770;2022-10-16T08:27:31;97019.88;;;16.76;64.78
53916;BME280;39827;49.652;18.770;2022-10-16T08:29:56;97012.91;;;16.21;66.31
53916;BME280;39827;49.652;18.770;2022-10-16T08:32:22;97026.47;;;16.00;66.77
53916;BME280;39827;49.652;18.770;2022-10-16T08:34:47;97034.50;;;15.95;67.07
53916;BME280;39827;49.652;18.770;2022-10-16T08:37:12;97033.13;;;16.02;67.06
53916;BME280;39827;49.652;18.770;2022-10-16T08:39:38;97024.78;;;15.69;67.96
53916;BME280;39827;49.652;18.770;2022-10-16T08:49:36;97047.50;;;15.61;69.38
53916;BME280;39827;49.652;18.770;2022-10-16T08:52:03;97042.06;;;15.27;69.92
53916;BME280;39827;49.652;18.770;2022-10-16T08:54:35;97058.59;;;15.34;69.31
53916;BME280;39827;49.652;18.770;2022-10-16T08:57:19;97044.78;;;15.21;69.40
53916;BME280;39827;49.652;18.770;2022-10-16T08:59:45;97052.84;;;15.06;71.20
53916;BME280;39827;49.652;18.770;2022-10-16T09:02:32;97048.78;;;15.19;70.61
53916;BME280;39827;49.652;18.770;2022-10-16T09:10:30;97042.66;;;16.09;68.59
53916;BME280;39827;49.652;18.770;2022-10-16T09:13:13;97045.34;;;16.38;66.18
53916;BME280;39827;49.652;18.770;2022-10-16T09:16:07;97050.94;;;16.96;67.42
53916;BME280;39827;49.652;18.770;2022-10-16T09:21:45;97053.06;;;17.24;63.73
53916;BME280;39827;49.652;18.770;2022-10-16T09:24:22;97039.50;;;16.90;63.89
53916;BME280;39827;49.652;18.770;2022-10-16T09:26:49;97049.81;;;17.02;62.58
53916;BME280;39827;49.652;18.770;2022-10-16T09:29:16;97047.50;;;16.90;63.00
53916;BME280;39827;49.652;18.770;2022-10-16T09:31:45;97047.78;;;17.18;63.05
53916;BME280;39827;49.652;18.770;2022-10-16T09:34:35;97060.97;;;17.10;63.44
53916;BME280;39827;49.652;18.770;2022-10-16T09:37:12;97064.19;;;17.12;62.89
53916;BME280;39827;49.652;18.770;2022-10-16T09:39:53;97044.81;;;16.96;64.30
53916;BME280;39827;49.652;18.770;2022-10-16T09:42:23;97050.66;;;17.22;63.38
53916;BME280;39827;49.652;18.770;2022-10-16T09:44:50;97042.50;;;17.13;63.62
53916;BME280;39827;49.652;18.770;2022-10-16T09:47:20;97065.63;;;16.99;63.77
53916;BME280;39827;49.652;18.770;2022-10-16T09:50:04;97057.03;;;16.77;65.31
53916;BME280;39827;49.652;18.770;2022-10-16T09:52:31;97070.94;;;16.74;64.68
53916;BME280;39827;49.652;18.770;2022-10-16T09:55:09;97069.09;;;16.75;65.97
53916;BME280;39827;49.652;18.770;2022-10-16T09:57:48;97068.91;;;16.66;66.32
53916;BME280;39827;49.652;18.770;2022-10-16T10:00:16;97077.09;;;16.75;65.46
53916;BME280;39827;49.652;18.770;2022-10-16T10:02:41;97074.03;;;16.87;65.78
53916;BME280;39827;49.652;18.770;2022-10-16T10:05:24;97069.16;;;16.70;65.27
53916;BME280;39827;49.652;18.770;2022-10-16T10:07:58;97077.50;;;16.63;66.77
53916;BME280;39827;49.652;18.770;2022-10-16T10:10:29;97064.13;;;16.63;66.07
53916;BME280;39827;49.652;18.770;2022-10-16T10:12:56;97077.78;;;16.61;66.60
53916;BME280;39827;49.652;18.770;2022-10-16T10:15:22;97074.75;;;16.38;66.37
53916;BME280;39827;49.652;18.770;2022-10-16T10:17:54;97071.41;;;16.57;67.20
53916;BME280;39827;49.652;18.770;2022-10-16T10:22:48;97075.66;;;16.58;66.73
53916;BME280;39827;49.652;18.770;2022-10-16T10:30:27;97064.06;;;16.68;66.52
53916;BME280;39827;49.652;18.770;2022-10-16T10:35:38;97082.03;;;17.16;65.39
53916;BME280;39827;49.652;18.770;2022-10-16T10:41:14;97087.97;;;17.13;64.89
53916;BME280;39827;49.652;18.770;2022-10-16T10:46:16;97059.03;;;16.91;66.58
53916;BME280;39827;49.652;18.770;2022-10-16T10:54:20;97079.59;;;16.90;66.33
53916;BME280;39827;49.652;18.770;2022-10-16T10:56:57;97072.72;;;16.84;66.48
53916;BME280;39827;49.652;18.770;2022-10-16T10:59:40;97085.34;;;17.08;66.19
53916;BME280;39827;49.652;18.770;2022-10-16T11:02:14;97079.06;;;16.93;65.30
53916;BME280;39827;49.652;18.770;2022-10-16T11:07:49;97074.88;;;17.55;63.88
53916;BME280;39827;49.652;18.770;2022-10-16T11:10:23;97071.09;;;17.56;64.25
53916;BME280;39827;49.652;18.770;2022-10-16T11:12:53;97066.75;;;17.99;63.06
53916;BME280;39827;49.652;18.770;2022-10-16T11:15:35;97065.59;;;17.48;63.24
53916;BME280;39827;49.652;18.770;2022-10-16T11:18:08;97071.81;;;17.43;64.14
53916;BME280;39827;49.652;18.770;2022-10-16T11:20:42;97068.75;;;17.30;64.69
53916;BME280;39827;49.652;18.770;2022-10-16T11:23:35;97079.75;;;17.29;64.55
53916;BME280;39827;49.652;18.770;2022-10-16T11:26:11;97078.19;;;17.47;64.54
53916;BME280;39827;49.652;18.770;2022-10-16T11:28:48;97083.47;;;17.52;64.49
53916;BME280;39827;49.652;18.770;2022-10-16T11:31:24;97080.56;;;17.29;64.68
53916;BME280;39827;49.652;18.770;2022-10-16T11:34:04;97086.34;;;17.37;65.02
53916;BME280;39827;49.652;18.770;2022-10-16T11:39:20;97079.94;;;17.38;65.83
53916;BME280;39827;49.652;18.770;2022-10-16T11:42:10;97083.69;;;17.56;65.46
53916;BME280;39827;49.652;18.770;2022-10-16T11:50:04;97096.94;;;17.47;66.01
53916;BME280;39827;49.652;18.770;2022-10-16T11:52:46;97081.56;;;17.34;65.78
53916;BME280;39827;49.652;18.770;2022-10-16T11:55:21;97084.84;;;17.50;66.65
53916;BME280;39827;49.652;18.770;2022-10-16T11:57:51;97087.47;;;17.55;66.18
53916;BME280;39827;49.652;18.770;2022-10-16T12:00:29;97088.03;;;17.52;65.71
53916;BME280;39827;49.652;18.770;2022-10-16T12:03:19;97105.00;;;17.23;66.26
53916;BME280;39827;49.652;18.770;2022-10-16T12:08:36;97081.59;;;17.53;65.08
53916;BME280;39827;49.652;18.770;2022-10-16T12:16:59;97076.03;;;17.68;65.45
53916;BME280;39827;49.652;18.770;2022-10-16T12:19:27;97075.22;;;17.87;64.51
53916;BME280;39827;49.652;18.770;2022-10-16T12:21:56;97079.00;;;17.67;64.54
53916;BME280;39827;49.652;18.770;2022-10-16T12:24:39;97081.81;;;18.47;62.94
53916;BME280;39827;49.652;18.770;2022-10-16T12:27:23;97087.00;;;19.19;60.93
53916;BME280;39827;49.652;18.770;2022-10-16T12:29:54;97098.13;;;19.40;60.64
53916;BME280;39827;49.652;18.770;2022-10-16T12:32:32;97098.34;;;20.18;56.78
53916;BME280;39827;49.652;18.770;2022-10-16T12:35:00;97092.97;;;20.95;55.81
53916;BME280;39827;49.652;18.770;2022-10-16T12:37:31;97117.50;;;21.26;54.71
53916;BME280;39827;49.652;18.770;2022-10-16T12:39:59;97104.81;;;19.80;57.39
53916;BME280;39827;49.652;18.770;2022-10-16T12:44:54;97103.38;;;20.11;57.88
53916;BME280;39827;49.652;18.770;2022-10-16T12:47:34;97098.59;;;20.30;57.30
53916;BME280;39827;49.652;18.770;2022-10-16T12:50:00;97107.59;;;19.10;60.26
53916;BME280;39827;49.652;18.770;2022-10-16T12:52:37;97104.94;;;18.43;62.02
53916;BME280;39827;49.652;18.770;2022-10-16T12:55:05;97103.88;;;18.44;62.99
53916;BME280;39827;49.652;18.770;2022-10-16T13:00:28;97107.16;;;18.41;63.82
53916;BME280;39827;49.652;18.770;2022-10-16T13:12:02;97105.63;;;18.35;65.23
53916;BME280;39827;49.652;18.770;2022-10-16T13:14:45;97111.22;;;19.00;63.25
53916;BME280;39827;49.652;18.770;2022-10-16T13:28:11;97092.53;;;18.33;64.72
53916;BME280;39827;49.652;18.770;2022-10-16T13:30:51;97103.69;;;18.21;65.53
53916;BME280;39827;49.652;18.770;2022-10-16T13:33:27;97103.19;;;18.19;65.62
53916;BME280;39827;49.652;18.770;2022-10-16T13:35:57;97101.22;;;18.06;67.18
53916;BME280;39827;49.652;18.770;2022-10-16T13:38:24;97119.13;;;17.72;67.35
53916;BME280;39827;49.652;18.770;2022-10-16T13:41:35;97124.78;;;17.22;69.09
53916;BME280;39827;49.652;18.770;2022-10-16T13:43:38;97108.63;;;17.32;69.23
53916;BME280;39827;49.652;18.770;2022-10-16T13:46:18;97110.94;;;17.39;69.27
53916;BME280;39827;49.652;18.770;2022-10-16T13:48:45;97114.59;;;17.24;70.90
53916;BME280;39827;49.652;18.770;2022-10-16T13:51:20;97118.03;;;17.29;70.36
53916;BME280;39827;49.652;18.770;2022-10-16T13:53:46;97117.28;;;17.24;70.61
53916;BME280;39827;49.652;18.770;2022-10-16T13:56:21;97118.56;;;17.02;71.45
53916;BME280;39827;49.652;18.770;2022-10-16T13:59:05;97125.13;;;17.15;71.64
53916;BME280;39827;49.652;18.770;2022-10-16T14:01:41;97120.53;;;16.91;72.29
53916;BME280;39827;49.652;18.770;2022-10-16T14:04:11;97114.72;;;16.84;72.43
53916;BME280;39827;49.652;18.770;2022-10-16T14:06:41;97120.94;;;16.79;73.25
53916;BME280;39827;49.652;18.770;2022-10-16T14:09:20;97109.09;;;16.56;73.89
53916;BME280;39827;49.652;18.770;2022-10-16T14:11:53;97093.19;;;16.40;74.95
53916;BME280;39827;49.652;18.770;2022-10-16T14:14:19;97125.13;;;16.56;74.56
53916;BME280;39827;49.652;18.770;2022-10-16T14:16:44;97107.25;;;16.51;75.08
53916;BME280;39827;49.652;18.770;2022-10-16T14:19:24;97113.91;;;16.53;74.28
53916;BME280;39827;49.652;18.770;2022-10-16T14:21:51;97123.81;;;16.53;74.79
53916;BME280;39827;49.652;18.770;2022-10-16T14:24:26;97126.44;;;16.58;75.04
53916;BME280;39827;49.652;18.770;2022-10-16T14:26:52;97135.22;;;16.64;75.24
53916;BME280;39827;49.652;18.770;2022-10-16T14:29:21;97123.34;;;16.46;75.77
53916;BME280;39827;49.652;18.770;2022-10-16T14:32:01;97132.13;;;16.51;75.22
53916;BME280;39827;49.652;18.770;2022-10-16T14:34:29;97114.81;;;16.44;75.68
53916;BME280;39827;49.652;18.770;2022-10-16T14:36:59;97130.38;;;16.36;76.22
53916;BME280;39827;49.652;18.770;2022-10-16T14:39:27;97139.47;;;16.35;76.42
53916;BME280;39827;49.652;18.770;2022-10-16T14:41:55;97128.19;;;16.38;76.17